MyTimes logo

TIMES

Webb Imagery

16/02/2002
Channel Challenge
550m Swim / 2.0km Run - Local Residents

(Click on competitor name to view personalised results)

Name
Race #
Category
Time
(mm:ss.t)
Avg Speed
km/hr
OAll
Place
Cat
Place
COOPER Brett#1001Mens Jnr12:44.1 11
HOLLINS Peter#1220Mens Snr13:18.9 21
PAGE Tiger#1207Mens Snr13:37.7 32
YUSKO Bill#217Mens 40+14:09.9 41
DALLINGER Chris#1212Mens Snr14:20.5 53
YUSKO Daniel#1382Mens Snr14:26.3 64
SPOTTISWOOD James#1388Mens Snr14:39.8 75
FLEISNER Rob#201Mens 40+14:55.9 82
GRAHAME Sarah#253Womens Jnr14:58.0 91
MASON Nick#1007Mens Jnr14:58.8 102
HARRISON Derek#1209Mens Snr15:19.7 116
QUILLFORD Reese#1233Mens Snr15:20.8 127
GARRETT Geoff#1217Mens Snr15:22.4 138
HOGHTON Daniel#1226Mens Snr15:25.8 149
WEIR Jake#1008Mens Jnr15:27.5 153
MARSHALL Luke#1229Mens Snr15:28.4 1610
MCHENRY David#1006Mens Jnr15:34.5 174
JUDD Gary#210Mens 40+15:45.9 183
FISHER Kevin#1211Mens Snr15:55.6 1911
LAMARO Christian#1383Mens Snr16:06.1 2012
EVANS Bree#250Womens Jnr16:08.1 212
MASON John#218Mens 40+16:08.1 224
ROLLAND Thierry#1232Mens Snr16:08.6 2313
HEWETT Noel#1214Mens Snr16:16.8 2414
CARTER Dean#508Mens 50+16:32.9 251
TURNER Peter#212Mens 40+16:33.7 265
MCHENRY Andrew#1005Mens Jnr16:33.8 275
DALLINGER Andrew#1215Mens Snr16:51.8 2815
FLEISNER Paul#502Mens 50+16:54.1 292
BROWN Matthew#1218Mens Snr17:00.2 3016
SUNDERLAND Peter#208Mens 40+17:02.2 316
FAIRTHORNE Mark#1200Mens Snr17:02.3 3217
MILLER Todd#1231Mens Snr17:03.6 3318
BRADEN Michael#1219Mens Snr17:04.7 3419
OLDEN Josh#1227Mens Snr17:17.7 3520
DAFF Geoff#207Mens 40+17:18.6 367
KEADY Richard#509Mens 50+17:18.9 373
TANCHEFF Brian#206Mens 40+17:27.6 388
MUNDAY Paul#214Mens 40+17:30.4 399
DAVIE Angie#54Womens 40+17:31.0 401
CAMERON Jane#51Womens 40+17:35.9 412
MACAULAY David #1384Mens Snr17:39.1 4221
O'SHEA Esta#256Womens Jnr17:43.8 433
JAMIESON Mark#209Mens 40+17:50.6 4410
DOOM Kathy#1411Womens Snr17:59.6 451
TAYLOR Graham#213Mens 40+18:06.9 4611
COX Bill#205Mens 40+18:09.9 4712
CHISHOLM Kevin#1385Mens Snr18:19.5 4822
CUTHERBERTSON Diddy#1410Womens Snr18:25.1 492
NASH Steven#1213Mens Snr18:28.7 5023
HACKETT Johnny#1386Mens Snr18:30.6 5124
CHAPMAN Wayne#1222Mens Snr18:35.3 5225
FUERY Steve#1234Mens Snr18:38.2 5326
SMITH John#1228Mens Snr18:39.4 5427
ROOKS David#1208Mens Snr18:46.0 5528
WHITEHOUSE Cara#255Womens Jnr18:47.3 564
ADNAM Sian#50Womens 40+18:47.8 573
KRUMINS Emma#254Womens Jnr18:48.2 585
ABRAHMSON Gareth#1221Mens Snr18:48.6 5929
SMITH Paul#507Mens 50+18:52.5 604
LEE Daniel#1000Mens Jnr18:54.2 616
O'DONOHUE Mark#1205Mens Snr19:05.1 6230
PRICE Brodie#1004Mens Jnr19:07.8 637
MANNING Simon#1203Mens Snr19:09.9 6431
MATTHEWS Bob#503Mens 50+19:10.6 655
HOPKINS Barry#202Mens 40+19:13.0 6613
NEILSEN Ben#1204Mens Snr19:16.4 6732
THURGOOD Neville#1223Mens Snr19:18.0 6833
ELLUZ Stephen#1380Mens Snr19:18.7 6934
STOOPMAN Jo#1406Womens Snr19:19.6 703
SCKLUNA Chad#1003Mens Jnr19:33.1 718
YUSKO Imogen#257Womens Jnr19:36.1 726
GRAHAME Bruce#1224Mens Snr19:36.9 7335
FLEMING Graham#1201Mens Snr19:41.5 7436
MURPHY Vanessa#251Womens Jnr19:46.1 757
BEISCHER David#1381Mens Snr20:12.9 7637
BURROWS Karen#1403Womens Snr20:21.5 774
ROSSITER Jonatho#1210Mens Snr20:26.7 7838
CLAIRKE Shaun#1002Mens Jnr20:27.3 799
JOHNSTONE Brian#216Mens 40+20:31.7 8014
CARIAS Joe#200Mens 40+20:31.8 8115
BRADEN Heather#1405Womens Snr20:34.2 825
O'SULLIVAN Travis#1206Mens Snr20:47.5 8339
BREWIN Cathy#1409Womens Snr21:05.3 846
TODD Alycia#1407Womens Snr21:06.9 857
O'BRIEN Nathaniel#1225Mens Snr21:14.6 8640
WRIGHT Phil#222Mens 40+21:18.5 8716
FYFE Scott#211Mens 40+22:11.1 8817
LOVE Brooke#252Womens Jnr22:12.0 898
REID Wayne#1387Mens Snr22:16.8 9041
HOLT Marcus#220Mens 40+22:19.4 9118
O'SULLIVAN Janine#1400Womens Snr22:42.0 928
O'DONNELL Bryn#1216Mens Snr22:54.2 9342
OGIER Dale#1230Mens Snr23:01.8 9443
WEIR Warren#510Mens 50+23:03.6 956
DALLINGER Brian#501Mens 50+23:13.9 967
GREENHALGH Paul#1202Mens Snr23:42.2 9744
MCCARTHY Trish#53Womens 40+23:45.4 984
MUNRO Tony#203Mens 40+23:55.9 9919
COLEMAN Mark#221Mens 40+24:22.6 10020
KEWMING Robyn#52Womens 40+24:53.8 1015
PRICE Amanda#1408Womens Snr25:01.2 1029
BLACK Melanie#1401Womens Snr25:25.8 10310
CAMENZOLI Maria#1404Womens Snr28:44.0 10411
BOXER Bruce#500Mens 50+30:10.1 1058
SAGE Albert#506Mens 50+34:17.6 1069
ELDRED Robyn#1402-DNF--